Terminal Aerodrome Forecast
Issued by NWS

Home | Current Version | Previous Version | Text Only | Print | Product List | Glossary Off
Versions: 1 2 3 4 5 6 7 8 9 10 11 12 13 14 15 16 17

000
FTUS41 KCLE 172100 AAA
TAFFDY
TAF AMD
KFDY 172143Z 1722/1818 27015G22KT P6SM OVC060
     FM180000 27012G20KT P6SM VCSH OVC035
     FM180500 29016G25KT P6SM VCSH OVC025=

USA.gov is the U.S. government's official web portal to all federal, state and local government web resources and services.